sensor_id;sensor_type;location;lat;lon;timestamp;pressure;altitude;pressure_sealevel;temperature;humidity
41062;BME280;26812;42.662;23.352;2022-12-26T00:00:24;95807.56;;;5.13;66.32
41062;BME280;26812;42.662;23.352;2022-12-26T00:02:50;95808.63;;;5.07;66.17
41062;BME280;26812;42.662;23.352;2022-12-26T00:05:15;95816.66;;;5.17;66.50
41062;BME280;26812;42.662;23.352;2022-12-26T00:07:41;95810.78;;;5.15;66.29
41062;BME280;26812;42.662;23.352;2022-12-26T00:10:06;95814.31;;;5.21;65.89
41062;BME280;26812;42.662;23.352;2022-12-26T00:12:32;95815.31;;;5.15;65.82
41062;BME280;26812;42.662;23.352;2022-12-26T00:14:57;95808.50;;;4.87;66.36
41062;BME280;26812;42.662;23.352;2022-12-26T00:17:23;95816.03;;;4.90;66.52
41062;BME280;26812;42.662;23.352;2022-12-26T00:19:48;95821.59;;;4.88;66.13
41062;BME280;26812;42.662;23.352;2022-12-26T00:22:13;95805.97;;;4.60;66.48
41062;BME280;26812;42.662;23.352;2022-12-26T00:24:40;95816.75;;;4.38;67.26
41062;BME280;26812;42.662;23.352;2022-12-26T00:27:05;95821.75;;;4.29;68.07
41062;BME280;26812;42.662;23.352;2022-12-26T00:29:30;95826.13;;;4.46;68.48
41062;BME280;26812;42.662;23.352;2022-12-26T00:31:56;95813.84;;;4.45;68.41
41062;BME280;26812;42.662;23.352;2022-12-26T00:34:21;95834.19;;;4.56;68.35
41062;BME280;26812;42.662;23.352;2022-12-26T00:36:47;95826.03;;;4.67;67.88
41062;BME280;26812;42.662;23.352;2022-12-26T00:39:12;95811.03;;;4.61;67.61
41062;BME280;26812;42.662;23.352;2022-12-26T00:41:37;95812.31;;;4.54;67.44
41062;BME280;26812;42.662;23.352;2022-12-26T00:44:03;95824.25;;;4.46;67.43
41062;BME280;26812;42.662;23.352;2022-12-26T00:46:28;95829.81;;;4.40;68.33
41062;BME280;26812;42.662;23.352;2022-12-26T00:48:54;95836.50;;;4.42;68.41
41062;BME280;26812;42.662;23.352;2022-12-26T00:51:19;95842.56;;;4.64;68.18
41062;BME280;26812;42.662;23.352;2022-12-26T00:53:45;95836.41;;;4.64;68.04
41062;BME280;26812;42.662;23.352;2022-12-26T00:56:11;95832.19;;;4.73;67.92
41062;BME280;26812;42.662;23.352;2022-12-26T00:58:37;95834.31;;;4.71;67.71
41062;BME280;26812;42.662;23.352;2022-12-26T01:01:14;95838.84;;;4.71;67.34
41062;BME280;26812;42.662;23.352;2022-12-26T01:03:47;95830.78;;;4.60;66.91
41062;BME280;26812;42.662;23.352;2022-12-26T01:06:13;95817.28;;;4.40;67.02
41062;BME280;26812;42.662;23.352;2022-12-26T01:08:38;95822.31;;;4.31;67.09
41062;BME280;26812;42.662;23.352;2022-12-26T01:11:07;95810.66;;;4.11;67.23
41062;BME280;26812;42.662;23.352;2022-12-26T01:13:33;95847.47;;;4.14;68.15
41062;BME280;26812;42.662;23.352;2022-12-26T01:15:59;95830.69;;;3.86;68.49
41062;BME280;26812;42.662;23.352;2022-12-26T01:18:24;95845.72;;;3.97;69.07
41062;BME280;26812;42.662;23.352;2022-12-26T01:20:50;95822.44;;;3.88;69.11
41062;BME280;26812;42.662;23.352;2022-12-26T01:23:16;95868.13;;;4.28;69.20
41062;BME280;26812;42.662;23.352;2022-12-26T01:25:41;95872.38;;;4.24;68.48
41062;BME280;26812;42.662;23.352;2022-12-26T01:28:07;95872.63;;;4.23;68.56
41062;BME280;26812;42.662;23.352;2022-12-26T01:30:32;95866.31;;;4.29;68.46
41062;BME280;26812;42.662;23.352;2022-12-26T01:32:58;95873.25;;;4.30;68.21
41062;BME280;26812;42.662;23.352;2022-12-26T01:35:23;95870.56;;;4.30;68.32
41062;BME280;26812;42.662;23.352;2022-12-26T01:37:48;95857.94;;;4.20;67.74
41062;BME280;26812;42.662;23.352;2022-12-26T01:40:14;95867.47;;;4.11;68.02
41062;BME280;26812;42.662;23.352;2022-12-26T01:42:40;95847.78;;;3.90;68.18
41062;BME280;26812;42.662;23.352;2022-12-26T01:45:24;95846.47;;;3.66;69.27
41062;BME280;26812;42.662;23.352;2022-12-26T01:52:55;95862.66;;;3.59;70.55
41062;BME280;26812;42.662;23.352;2022-12-26T01:55:21;95813.44;;;3.18;71.68
41062;BME280;26812;42.662;23.352;2022-12-26T01:57:53;95866.06;;;3.55;71.46
41062;BME280;26812;42.662;23.352;2022-12-26T02:00:21;95857.44;;;3.69;71.51
41062;BME280;26812;42.662;23.352;2022-12-26T02:02:46;95857.75;;;3.73;71.54
41062;BME280;26812;42.662;23.352;2022-12-26T02:05:31;95847.69;;;3.80;70.67
41062;BME280;26812;42.662;23.352;2022-12-26T02:08:07;95789.00;;;3.48;70.71
41062;BME280;26812;42.662;23.352;2022-12-26T02:10:54;95854.13;;;3.84;70.15
41062;BME280;26812;42.662;23.352;2022-12-26T02:13:21;95834.88;;;3.77;70.36
41062;BME280;26812;42.662;23.352;2022-12-26T02:15:46;95829.88;;;3.59;70.15
41062;BME280;26812;42.662;23.352;2022-12-26T02:18:12;95823.94;;;3.52;70.49
41062;BME280;26812;42.662;23.352;2022-12-26T02:43:20;95829.38;;;3.62;71.04
41062;BME280;26812;42.662;23.352;2022-12-26T02:52:07;95837.59;;;3.60;70.51
41062;BME280;26812;42.662;23.352;2022-12-26T02:55:06;95847.59;;;3.70;70.86
41062;BME280;26812;42.662;23.352;2022-12-26T02:58:06;95840.66;;;3.69;70.67
41062;BME280;26812;42.662;23.352;2022-12-26T03:00:56;95836.38;;;3.68;70.67
41062;BME280;26812;42.662;23.352;2022-12-26T03:03:44;95817.22;;;3.71;70.34
41062;BME280;26812;42.662;23.352;2022-12-26T03:06:32;95827.66;;;3.78;70.36
41062;BME280;26812;42.662;23.352;2022-12-26T03:09:30;95830.63;;;3.81;69.04
41062;BME280;26812;42.662;23.352;2022-12-26T03:15:05;95824.25;;;3.33;69.48
41062;BME280;26812;42.662;23.352;2022-12-26T03:17:43;95838.06;;;3.30;71.27
41062;BME280;26812;42.662;23.352;2022-12-26T03:20:17;95845.13;;;3.41;71.13
41062;BME280;26812;42.662;23.352;2022-12-26T03:28:15;95848.16;;;3.50;71.37
41062;BME280;26812;42.662;23.352;2022-12-26T03:30:41;95844.03;;;3.37;71.46
41062;BME280;26812;42.662;23.352;2022-12-26T03:36:05;95841.66;;;3.19;71.46
41062;BME280;26812;42.662;23.352;2022-12-26T03:41:37;95842.59;;;3.08;71.60
41062;BME280;26812;42.662;23.352;2022-12-26T03:44:41;95865.56;;;3.14;71.90
41062;BME280;26812;42.662;23.352;2022-12-26T03:48:12;95862.41;;;3.17;71.46
41062;BME280;26812;42.662;23.352;2022-12-26T03:51:07;95872.31;;;3.22;72.44
41062;BME280;26812;42.662;23.352;2022-12-26T03:54:39;95877.50;;;3.33;71.97
41062;BME280;26812;42.662;23.352;2022-12-26T03:57:17;95862.03;;;3.30;72.08
41062;BME280;26812;42.662;23.352;2022-12-26T04:00:08;95863.34;;;3.28;71.20
41062;BME280;26812;42.662;23.352;2022-12-26T04:02:58;95871.81;;;3.25;71.34
41062;BME280;26812;42.662;23.352;2022-12-26T04:05:44;95875.47;;;3.19;71.11
41062;BME280;26812;42.662;23.352;2022-12-26T04:09:07;95873.56;;;3.14;71.70
41062;BME280;26812;42.662;23.352;2022-12-26T04:11:47;95857.44;;;3.04;71.93
41062;BME280;26812;42.662;23.352;2022-12-26T04:14:45;95864.28;;;3.17;71.33
41062;BME280;26812;42.662;23.352;2022-12-26T04:20:52;95861.22;;;3.08;71.90
41062;BME280;26812;42.662;23.352;2022-12-26T04:23:42;95853.97;;;3.03;72.30
41062;BME280;26812;42.662;23.352;2022-12-26T04:26:33;95852.56;;;3.18;72.30
41062;BME280;26812;42.662;23.352;2022-12-26T04:29:19;95839.94;;;3.08;71.92
41062;BME280;26812;42.662;23.352;2022-12-26T04:35:21;95838.75;;;3.21;72.10
41062;BME280;26812;42.662;23.352;2022-12-26T04:38:09;95833.56;;;3.09;72.04
41062;BME280;26812;42.662;23.352;2022-12-26T04:40:58;95840.31;;;3.17;71.38
41062;BME280;26812;42.662;23.352;2022-12-26T04:43:45;95846.94;;;3.14;71.31
41062;BME280;26812;42.662;23.352;2022-12-26T04:46:31;95866.88;;;3.11;72.08
41062;BME280;26812;42.662;23.352;2022-12-26T04:48:59;95859.81;;;3.22;72.09
41062;BME280;26812;42.662;23.352;2022-12-26T04:51:46;95805.59;;;2.90;71.46
41062;BME280;26812;42.662;23.352;2022-12-26T04:54:12;95850.75;;;3.01;71.70
41062;BME280;26812;42.662;23.352;2022-12-26T04:56:38;95877.59;;;3.17;72.09
41062;BME280;26812;42.662;23.352;2022-12-26T04:59:03;95860.22;;;2.92;72.62
41062;BME280;26812;42.662;23.352;2022-12-26T05:01:28;95848.75;;;2.92;72.06
41062;BME280;26812;42.662;23.352;2022-12-26T05:04:14;95878.94;;;3.19;70.75
41062;BME280;26812;42.662;23.352;2022-12-26T05:06:59;95870.34;;;3.12;70.84
41062;BME280;26812;42.662;23.352;2022-12-26T05:09:48;95867.50;;;2.80;71.12
41062;BME280;26812;42.662;23.352;2022-12-26T05:12:14;95868.38;;;2.69;71.69
41062;BME280;26812;42.662;23.352;2022-12-26T05:14:39;95859.78;;;2.45;72.37
41062;BME280;26812;42.662;23.352;2022-12-26T05:17:06;95873.94;;;2.67;73.38
41062;BME280;26812;42.662;23.352;2022-12-26T05:19:50;95884.28;;;2.80;72.32
41062;BME280;26812;42.662;23.352;2022-12-26T05:22:38;95875.00;;;2.66;73.28
41062;BME280;26812;42.662;23.352;2022-12-26T05:25:26;95894.81;;;2.75;73.11
41062;BME280;26812;42.662;23.352;2022-12-26T05:28:11;95892.56;;;2.67;73.69
41062;BME280;26812;42.662;23.352;2022-12-26T05:30:56;95902.66;;;2.82;73.25
41062;BME280;26812;42.662;23.352;2022-12-26T05:33:22;95914.44;;;2.86;72.77
41062;BME280;26812;42.662;23.352;2022-12-26T05:36:06;95900.69;;;2.94;72.50
41062;BME280;26812;42.662;23.352;2022-12-26T05:38:32;95912.94;;;2.95;72.28
41062;BME280;26812;42.662;23.352;2022-12-26T05:40:57;95903.34;;;2.94;71.88
41062;BME280;26812;42.662;23.352;2022-12-26T05:43:23;95888.31;;;2.83;71.54
41062;BME280;26812;42.662;23.352;2022-12-26T05:45:48;95891.38;;;2.58;71.45
41062;BME280;26812;42.662;23.352;2022-12-26T05:48:13;95880.34;;;2.49;72.78
41062;BME280;26812;42.662;23.352;2022-12-26T05:50:39;95890.09;;;2.61;72.16
41062;BME280;26812;42.662;23.352;2022-12-26T05:53:04;95889.03;;;2.62;72.61
41062;BME280;26812;42.662;23.352;2022-12-26T05:55:29;95900.56;;;2.67;73.29
41062;BME280;26812;42.662;23.352;2022-12-26T05:57:55;95894.34;;;2.78;73.34
41062;BME280;26812;42.662;23.352;2022-12-26T06:00:23;95889.91;;;2.84;71.97
41062;BME280;26812;42.662;23.352;2022-12-26T06:02:48;95901.28;;;2.79;72.84
41062;BME280;26812;42.662;23.352;2022-12-26T06:05:13;95893.13;;;2.69;73.05
41062;BME280;26812;42.662;23.352;2022-12-26T06:07:39;95901.59;;;2.83;73.11
41062;BME280;26812;42.662;23.352;2022-12-26T06:10:05;95897.72;;;2.91;72.88
41062;BME280;26812;42.662;23.352;2022-12-26T06:12:31;95897.09;;;2.67;72.50
41062;BME280;26812;42.662;23.352;2022-12-26T06:15:03;95913.78;;;2.79;73.35
41062;BME280;26812;42.662;23.352;2022-12-26T06:17:29;95909.28;;;2.79;72.80
41062;BME280;26812;42.662;23.352;2022-12-26T06:19:54;95903.41;;;2.77;73.02
41062;BME280;26812;42.662;23.352;2022-12-26T06:22:20;95893.06;;;2.81;73.44
41062;BME280;26812;42.662;23.352;2022-12-26T06:24:45;95900.13;;;2.92;73.17
41062;BME280;26812;42.662;23.352;2022-12-26T06:27:10;95906.91;;;3.00;72.65
41062;BME280;26812;42.662;23.352;2022-12-26T06:29:36;95927.81;;;3.08;72.63
41062;BME280;26812;42.662;23.352;2022-12-26T06:32:01;95919.72;;;3.03;72.08
41062;BME280;26812;42.662;23.352;2022-12-26T06:34:27;95914.50;;;3.08;72.23
41062;BME280;26812;42.662;23.352;2022-12-26T06:36:52;95911.72;;;3.03;72.37
41062;BME280;26812;42.662;23.352;2022-12-26T06:39:19;95921.00;;;3.00;72.67
41062;BME280;26812;42.662;23.352;2022-12-26T06:41:45;95886.75;;;2.70;73.16
41062;BME280;26812;42.662;23.352;2022-12-26T06:44:11;95916.72;;;2.99;73.29
41062;BME280;26812;42.662;23.352;2022-12-26T06:46:37;95921.50;;;3.14;73.27
41062;BME280;26812;42.662;23.352;2022-12-26T06:49:02;95910.72;;;3.26;72.87
41062;BME280;26812;42.662;23.352;2022-12-26T06:51:27;95917.97;;;3.30;72.25
41062;BME280;26812;42.662;23.352;2022-12-26T06:53:53;95934.22;;;3.51;72.14
41062;BME280;26812;42.662;23.352;2022-12-26T06:56:24;95944.94;;;3.56;71.36
41062;BME280;26812;42.662;23.352;2022-12-26T06:58:54;95916.63;;;3.50;71.18
41062;BME280;26812;42.662;23.352;2022-12-26T07:01:20;95940.53;;;3.66;71.54
41062;BME280;26812;42.662;23.352;2022-12-26T07:03:47;95938.31;;;3.80;70.78
41062;BME280;26812;42.662;23.352;2022-12-26T07:06:19;95939.38;;;3.79;70.43
41062;BME280;26812;42.662;23.352;2022-12-26T07:08:45;95948.72;;;3.82;70.76
41062;BME280;26812;42.662;23.352;2022-12-26T07:11:16;95940.44;;;3.78;70.35
41062;BME280;26812;42.662;23.352;2022-12-26T07:13:42;95951.34;;;3.77;70.99
41062;BME280;26812;42.662;23.352;2022-12-26T07:16:08;95946.75;;;3.72;70.79
41062;BME280;26812;42.662;23.352;2022-12-26T07:18:34;95951.94;;;3.84;71.11
41062;BME280;26812;42.662;23.352;2022-12-26T07:21:03;95952.06;;;3.94;70.60
41062;BME280;26812;42.662;23.352;2022-12-26T07:23:29;95951.50;;;3.92;71.32
41062;BME280;26812;42.662;23.352;2022-12-26T07:25:55;95958.88;;;4.07;71.31
41062;BME280;26812;42.662;23.352;2022-12-26T07:28:20;95951.19;;;4.10;70.63
41062;BME280;26812;42.662;23.352;2022-12-26T07:30:47;95956.94;;;4.24;70.48
41062;BME280;26812;42.662;23.352;2022-12-26T07:33:12;95958.84;;;4.28;70.25
41062;BME280;26812;42.662;23.352;2022-12-26T07:35:37;95960.41;;;4.24;70.65
41062;BME280;26812;42.662;23.352;2022-12-26T07:38:03;95940.06;;;4.18;70.99
41062;BME280;26812;42.662;23.352;2022-12-26T07:40:28;95945.16;;;4.47;70.61
41062;BME280;26812;42.662;23.352;2022-12-26T07:42:54;95948.06;;;4.45;70.58
41062;BME280;26812;42.662;23.352;2022-12-26T07:45:19;95954.41;;;4.66;71.00
41062;BME280;26812;42.662;23.352;2022-12-26T07:47:44;95931.69;;;5.38;68.86
41062;BME280;26812;42.662;23.352;2022-12-26T07:50:10;95897.34;;;5.19;67.85
41062;BME280;26812;42.662;23.352;2022-12-26T07:52:35;95935.66;;;5.87;67.56
41062;BME280;26812;42.662;23.352;2022-12-26T07:55:01;95941.78;;;6.76;66.00
41062;BME280;26812;42.662;23.352;2022-12-26T07:57:26;95943.38;;;7.18;61.98
41062;BME280;26812;42.662;23.352;2022-12-26T07:59:51;95901.56;;;7.16;61.22
41062;BME280;26812;42.662;23.352;2022-12-26T08:02:17;95937.72;;;6.73;62.15
41062;BME280;26812;42.662;23.352;2022-12-26T08:04:42;95928.09;;;6.88;62.62
41062;BME280;26812;42.662;23.352;2022-12-26T08:07:08;95931.59;;;7.08;62.57
41062;BME280;26812;42.662;23.352;2022-12-26T08:09:34;95921.09;;;7.22;62.56
41062;BME280;26812;42.662;23.352;2022-12-26T08:11:59;95936.53;;;7.76;61.68
41062;BME280;26812;42.662;23.352;2022-12-26T08:14:24;95928.09;;;8.96;59.12
41062;BME280;26812;42.662;23.352;2022-12-26T08:16:50;95932.53;;;10.54;51.65
41062;BME280;26812;42.662;23.352;2022-12-26T08:19:15;95940.50;;;11.76;50.36
41062;BME280;26812;42.662;23.352;2022-12-26T08:21:41;95933.63;;;13.42;45.17
41062;BME280;26812;42.662;23.352;2022-12-26T08:24:06;95918.72;;;13.84;42.51
41062;BME280;26812;42.662;23.352;2022-12-26T08:26:32;95938.66;;;13.57;41.77
41062;BME280;26812;42.662;23.352;2022-12-26T08:28:57;95954.00;;;13.39;41.84
41062;BME280;26812;42.662;23.352;2022-12-26T08:31:23;95953.06;;;12.99;42.53
41062;BME280;26812;42.662;23.352;2022-12-26T08:33:48;95937.41;;;12.37;43.55
41062;BME280;26812;42.662;23.352;2022-12-26T08:36:14;95948.09;;;11.74;44.96
41062;BME280;26812;42.662;23.352;2022-12-26T08:38:42;95950.88;;;11.23;46.66
41062;BME280;26812;42.662;23.352;2022-12-26T08:41:08;95926.84;;;10.75;47.70
41062;BME280;26812;42.662;23.352;2022-12-26T08:43:33;95944.41;;;10.72;48.09
41062;BME280;26812;42.662;23.352;2022-12-26T08:46:06;95936.59;;;10.71;48.31
41062;BME280;26812;42.662;23.352;2022-12-26T08:48:33;95928.81;;;10.50;49.19
41062;BME280;26812;42.662;23.352;2022-12-26T08:51:04;95933.38;;;10.69;49.22
41062;BME280;26812;42.662;23.352;2022-12-26T08:53:30;95926.13;;;11.02;48.83
41062;BME280;26812;42.662;23.352;2022-12-26T08:56:05;95927.84;;;11.44;47.52
41062;BME280;26812;42.662;23.352;2022-12-26T08:58:31;95931.03;;;12.06;46.05
41062;BME280;26812;42.662;23.352;2022-12-26T09:01:09;95919.69;;;12.31;45.17
41062;BME280;26812;42.662;23.352;2022-12-26T09:03:35;95928.78;;;12.35;45.25
41062;BME280;26812;42.662;23.352;2022-12-26T09:06:01;95919.19;;;12.29;45.46
41062;BME280;26812;42.662;23.352;2022-12-26T09:08:28;95904.44;;;11.99;46.19
41062;BME280;26812;42.662;23.352;2022-12-26T09:10:55;95914.72;;;11.97;46.61
41062;BME280;26812;42.662;23.352;2022-12-26T09:13:22;95922.03;;;11.83;46.63
41062;BME280;26812;42.662;23.352;2022-12-26T09:15:47;95919.16;;;11.33;47.71
41062;BME280;26812;42.662;23.352;2022-12-26T09:18:13;95921.47;;;11.07;48.94
41062;BME280;26812;42.662;23.352;2022-12-26T09:20:38;95911.63;;;10.98;49.58
41062;BME280;26812;42.662;23.352;2022-12-26T09:23:04;95920.91;;;11.24;49.08
41062;BME280;26812;42.662;23.352;2022-12-26T09:25:31;95896.72;;;11.19;48.74
41062;BME280;26812;42.662;23.352;2022-12-26T09:27:56;95920.91;;;11.24;48.92
41062;BME280;26812;42.662;23.352;2022-12-26T09:30:22;95922.50;;;10.93;49.43
41062;BME280;26812;42.662;23.352;2022-12-26T09:32:48;95911.00;;;10.68;49.98
41062;BME280;26812;42.662;23.352;2022-12-26T09:35:13;95919.13;;;10.49;51.24
41062;BME280;26812;42.662;23.352;2022-12-26T09:37:39;95903.88;;;10.40;51.79
41062;BME280;26812;42.662;23.352;2022-12-26T09:40:05;95903.63;;;9.75;52.66
41062;BME280;26812;42.662;23.352;2022-12-26T09:45:28;95912.44;;;10.47;53.12
41062;BME280;26812;42.662;23.352;2022-12-26T09:48:10;95903.56;;;11.58;50.37
41062;BME280;26812;42.662;23.352;2022-12-26T09:50:38;95906.16;;;12.45;47.63
41062;BME280;26812;42.662;23.352;2022-12-26T09:53:12;95896.00;;;13.62;44.38
41062;BME280;26812;42.662;23.352;2022-12-26T09:56:06;95891.94;;;15.26;40.66
41062;BME280;26812;42.662;23.352;2022-12-26T09:58:55;95906.09;;;16.33;38.72
41062;BME280;26812;42.662;23.352;2022-12-26T10:01:23;95859.41;;;17.15;36.38
41062;BME280;26812;42.662;23.352;2022-12-26T10:03:55;95893.41;;;18.36;34.22
41062;BME280;26812;42.662;23.352;2022-12-26T10:06:36;95887.19;;;19.00;32.44
41062;BME280;26812;42.662;23.352;2022-12-26T10:14:43;95868.69;;;19.96;31.31
41062;BME280;26812;42.662;23.352;2022-12-26T10:20:42;95857.13;;;21.92;28.21
41062;BME280;26812;42.662;23.352;2022-12-26T10:23:33;95857.59;;;23.71;25.46
41062;BME280;26812;42.662;23.352;2022-12-26T10:28:54;95845.00;;;26.98;21.44
41062;BME280;26812;42.662;23.352;2022-12-26T10:31:44;95840.13;;;28.52;19.66
41062;BME280;26812;42.662;23.352;2022-12-26T10:34:42;95841.22;;;29.64;18.26
41062;BME280;26812;42.662;23.352;2022-12-26T10:44:52;95821.13;;;31.00;16.50
41062;BME280;26812;42.662;23.352;2022-12-26T10:47:32;95821.22;;;30.97;16.37
41062;BME280;26812;42.662;23.352;2022-12-26T10:50:01;95807.56;;;30.63;16.84
41062;BME280;26812;42.662;23.352;2022-12-26T10:52:36;95819.47;;;30.83;16.29
41062;BME280;26812;42.662;23.352;2022-12-26T10:55:03;95809.22;;;31.00;16.12
41062;BME280;26812;42.662;23.352;2022-12-26T10:57:31;95812.75;;;31.24;15.76
41062;BME280;26812;42.662;23.352;2022-12-26T11:00:00;95797.00;;;31.13;15.57
41062;BME280;26812;42.662;23.352;2022-12-26T11:02:28;95812.06;;;30.29;16.56
41062;BME280;26812;42.662;23.352;2022-12-26T11:05:16;95793.56;;;27.88;18.78
41062;BME280;26812;42.662;23.352;2022-12-26T11:07:52;95804.13;;;28.49;18.52
41062;BME280;26812;42.662;23.352;2022-12-26T11:10:21;95785.19;;;29.46;17.42
41062;BME280;26812;42.662;23.352;2022-12-26T11:12:52;95798.88;;;27.65;19.20
41062;BME280;26812;42.662;23.352;2022-12-26T11:18:07;95783.22;;;28.78;18.58
41062;BME280;26812;42.662;23.352;2022-12-26T11:20:33;95776.81;;;29.76;17.70
41062;BME280;26812;42.662;23.352;2022-12-26T11:23:21;95777.06;;;31.55;15.64
41062;BME280;26812;42.662;23.352;2022-12-26T11:25:58;95770.56;;;32.42;15.10
41062;BME280;26812;42.662;23.352;2022-12-26T11:30:49;95764.47;;;33.60;13.67
41062;BME280;26812;42.662;23.352;2022-12-26T11:38:21;95761.19;;;34.25;13.04
41062;BME280;26812;42.662;23.352;2022-12-26T11:41:00;95760.13;;;33.97;13.48
41062;BME280;26812;42.662;23.352;2022-12-26T11:43:46;95762.63;;;33.28;13.53
41062;BME280;26812;42.662;23.352;2022-12-26T11:46:12;95756.84;;;32.64;14.46
41062;BME280;26812;42.662;23.352;2022-12-26T11:48:38;95751.88;;;31.42;14.90
41062;BME280;26812;42.662;23.352;2022-12-26T11:51:04;95755.28;;;31.86;15.02
41062;BME280;26812;42.662;23.352;2022-12-26T11:53:29;95747.16;;;32.69;14.33
41062;BME280;26812;42.662;23.352;2022-12-26T11:55:59;95747.81;;;32.73;14.07
41062;BME280;26812;42.662;23.352;2022-12-26T11:58:28;95743.78;;;32.61;14.19
41062;BME280;26812;42.662;23.352;2022-12-26T12:03:41;95739.03;;;31.64;14.92
41062;BME280;26812;42.662;23.352;2022-12-26T12:36:53;95717.69;;;33.39;13.32
41062;BME280;26812;42.662;23.352;2022-12-26T12:39:35;95712.31;;;32.90;13.78
41062;BME280;26812;42.662;23.352;2022-12-26T13:01:20;95715.25;;;27.32;18.73
41062;BME280;26812;42.662;23.352;2022-12-26T13:03:54;95716.19;;;28.53;17.60
41062;BME280;26812;42.662;23.352;2022-12-26T13:08:56;95712.38;;;24.70;21.05
41062;BME280;26812;42.662;23.352;2022-12-26T13:11:28;95712.03;;;21.87;24.95
41062;BME280;26812;42.662;23.352;2022-12-26T13:17:16;95709.28;;;19.96;27.51
41062;BME280;26812;42.662;23.352;2022-12-26T13:19:47;95713.50;;;17.75;31.33
41062;BME280;26812;42.662;23.352;2022-12-26T13:22:24;95716.00;;;17.43;32.17
41062;BME280;26812;42.662;23.352;2022-12-26T13:24:55;95726.06;;;16.94;32.97
41062;BME280;26812;42.662;23.352;2022-12-26T13:27:29;95723.47;;;15.60;34.94
41062;BME280;26812;42.662;23.352;2022-12-26T13:29:56;95722.44;;;15.44;35.43
41062;BME280;26812;42.662;23.352;2022-12-26T13:32:24;95712.66;;;15.13;35.33
41062;BME280;26812;42.662;23.352;2022-12-26T13:34:52;95712.63;;;15.22;35.58
41062;BME280;26812;42.662;23.352;2022-12-26T13:40:23;95709.63;;;14.68;37.04
41062;BME280;26812;42.662;23.352;2022-12-26T13:42:54;95712.69;;;14.41;37.62
41062;BME280;26812;42.662;23.352;2022-12-26T13:50:55;95714.34;;;13.24;40.68
41062;BME280;26812;42.662;23.352;2022-12-26T14:04:33;95720.00;;;13.54;40.72
41062;BME280;26812;42.662;23.352;2022-12-26T14:23:35;95712.13;;;12.56;43.74
41062;BME280;26812;42.662;23.352;2022-12-26T14:26:13;95715.00;;;12.59;43.61
41062;BME280;26812;42.662;23.352;2022-12-26T14:45:47;95729.00;;;11.03;48.45
41062;BME280;26812;42.662;23.352;2022-12-26T14:50:47;95731.41;;;10.45;51.03
41062;BME280;26812;42.662;23.352;2022-12-26T14:55:49;95738.25;;;10.37;51.54
41062;BME280;26812;42.662;23.352;2022-12-26T14:58:42;95738.81;;;10.20;51.91
41062;BME280;26812;42.662;23.352;2022-12-26T15:23:19;95703.47;;;9.71;53.96
41062;BME280;26812;42.662;23.352;2022-12-26T15:33:39;95711.75;;;9.74;53.50
41062;BME280;26812;42.662;23.352;2022-12-26T15:40:04;95718.28;;;9.30;55.22
41062;BME280;26812;42.662;23.352;2022-12-26T15:51:00;95705.50;;;8.51;58.38
41062;BME280;26812;42.662;23.352;2022-12-26T16:02:30;95723.59;;;8.06;60.29
41062;BME280;26812;42.662;23.352;2022-12-26T16:13:15;95736.03;;;7.92;60.27
41062;BME280;26812;42.662;23.352;2022-12-26T16:15:56;95748.88;;;7.95;60.89
41062;BME280;26812;42.662;23.352;2022-12-26T16:18:27;95740.22;;;7.69;61.49
41062;BME280;26812;42.662;23.352;2022-12-26T16:20:55;95721.22;;;7.60;61.87
41062;BME280;26812;42.662;23.352;2022-12-26T16:23:42;95739.25;;;7.50;62.01
41062;BME280;26812;42.662;23.352;2022-12-26T16:26:16;95730.19;;;7.40;62.28
41062;BME280;26812;42.662;23.352;2022-12-26T16:28:43;95743.25;;;7.52;62.34
41062;BME280;26812;42.662;23.352;2022-12-26T16:31:11;95737.94;;;7.47;62.20
41062;BME280;26812;42.662;23.352;2022-12-26T16:33:41;95736.03;;;7.53;61.81
41062;BME280;26812;42.662;23.352;2022-12-26T16:36:12;95744.59;;;7.55;62.50
41062;BME280;26812;42.662;23.352;2022-12-26T16:38:42;95678.31;;;7.16;62.38
41062;BME280;26812;42.662;23.352;2022-12-26T16:41:29;95720.41;;;7.60;62.27
41062;BME280;26812;42.662;23.352;2022-12-26T16:43:55;95729.41;;;7.40;62.76
41062;BME280;26812;42.662;23.352;2022-12-26T16:46:28;95730.47;;;7.39;62.61
41062;BME280;26812;42.662;23.352;2022-12-26T16:48:59;95749.88;;;7.15;63.76
41062;BME280;26812;42.662;23.352;2022-12-26T16:54:23;95744.78;;;7.14;63.68
41062;BME280;26812;42.662;23.352;2022-12-26T16:59:27;95757.13;;;7.10;63.84
41062;BME280;26812;42.662;23.352;2022-12-26T17:01:57;95749.72;;;6.87;64.37
41062;BME280;26812;42.662;23.352;2022-12-26T17:04:25;95767.34;;;6.98;64.80
41062;BME280;26812;42.662;23.352;2022-12-26T17:07:17;95770.31;;;6.96;64.12
41062;BME280;26812;42.662;23.352;2022-12-26T17:09:50;95774.34;;;6.89;64.00
41062;BME280;26812;42.662;23.352;2022-12-26T17:12:23;95766.66;;;6.46;65.50
41062;BME280;26812;42.662;23.352;2022-12-26T17:14:50;95776.56;;;6.51;65.82
41062;BME280;26812;42.662;23.352;2022-12-26T17:19:49;95785.41;;;6.51;66.23
41062;BME280;26812;42.662;23.352;2022-12-26T17:24:45;95775.22;;;6.59;66.03
41062;BME280;26812;42.662;23.352;2022-12-26T17:27:23;95781.09;;;6.56;65.64
41062;BME280;26812;42.662;23.352;2022-12-26T17:30:19;95783.50;;;6.62;66.18
41062;BME280;26812;42.662;23.352;2022-12-26T17:32:46;95783.50;;;6.42;66.60
41062;BME280;26812;42.662;23.352;2022-12-26T17:35:24;95766.13;;;6.29;66.63
41062;BME280;26812;42.662;23.352;2022-12-26T17:38:15;95772.00;;;6.36;67.31
41062;BME280;26812;42.662;23.352;2022-12-26T17:40:44;95768.53;;;6.41;66.75
41062;BME280;26812;42.662;23.352;2022-12-26T17:45:35;95759.44;;;6.32;66.22
41062;BME280;26812;42.662;23.352;2022-12-26T17:48:01;95752.22;;;6.32;66.03
41062;BME280;26812;42.662;23.352;2022-12-26T17:50:34;95771.50;;;6.49;65.81
41062;BME280;26812;42.662;23.352;2022-12-26T17:53:24;95733.47;;;6.32;65.94
41062;BME280;26812;42.662;23.352;2022-12-26T17:55:52;95737.22;;;6.31;66.25
41062;BME280;26812;42.662;23.352;2022-12-26T17:58:19;95735.91;;;6.23;65.83